Aviation Digital Data Service (ADDS)

Output produced by TAFs form (0154 UTC 22 June 2018)
found at http://www.aviationweather.gov/adds/tafs/
 
METAR text: RJCW 220138Z 21014KT 5000 -SHRA BR SCT005 BKN006 15/14 Q0996 RMK 3ST005 7ST006 A2942
Conditions at: RJCW (WAKKANAI AIRPORT, JP) observed 0138 UTC 22 June 2018
Temperature: 15.0°C (59°F)
Dewpoint: 14.0°C (57°F) [RH = 94%]
Pressure (altimeter): 29.41 inches Hg (996.0 mb)
Winds: from the SSW (210 degrees) at 16 MPH (14 knots; 7.3 m/s)
Visibility: 3 miles (5 km)
Ceiling: 600 feet AGL
Clouds: scattered clouds at 500 feet AGL
broken clouds at 600 feet AGL
Weather: -SHRA BR  (light rain showers, mist)